Terminal Aerodrome Forecast
Issued by NWS

Home | Current Version | Previous Version | Text Only | Print | Product List | Glossary On
Versions: 1 2 3 4 5 6 7 8 9 10 11 12
000
FTUS42 TJSJ 230520
TAFJSJ
TAF
TJSJ 230520Z 2306/2406 10005KT P6SM FEW035
     FM230800 00000KT P6SM VCSH SCT025 SCT040
     FM231400 05012KT P6SM VCSH SCT030 SCT070
     FM232200 08006KT P6SM FEW030 SCT090=

USA.gov is the U.S. government's official web portal to all federal, state and local government web resources and services.